createdAt,value
2022-08-25T00:00:42.650Z,75.35
2022-08-25T00:03:17.880Z,75.32
2022-08-25T00:05:52.576Z,75.39
2022-08-25T00:08:40.736Z,75.73
2022-08-25T00:11:47.052Z,75.73
2022-08-25T00:14:23.881Z,75.68
2022-08-25T00:17:00.889Z,75.78
2022-08-25T00:19:39.097Z,75.83
2022-08-25T00:22:26.836Z,75.87
2022-08-25T00:24:58.497Z,75.97
2022-08-25T00:27:40.623Z,76.25
2022-08-25T00:30:16.045Z,76.02
2022-08-25T00:33:08.751Z,75.95
2022-08-25T00:36:12.357Z,76.05
2022-08-25T00:39:05.962Z,76.04
2022-08-25T00:41:44.236Z,75.95
2022-08-25T00:44:20.533Z,75.96
2022-08-25T00:47:05.365Z,75.95
2022-08-25T00:49:51.255Z,76.08
2022-08-25T00:52:44.380Z,76.11
2022-08-25T00:55:24.673Z,76.08
2022-08-25T00:58:24.852Z,76.11
2022-08-25T01:01:11.657Z,76.01
2022-08-25T01:03:44.897Z,75.86
2022-08-25T01:06:22.691Z,75.94
2022-08-25T01:08:54.865Z,75.88
2022-08-25T01:11:32.153Z,75.87
2022-08-25T01:14:12.024Z,75.82
2022-08-25T01:16:46.526Z,75.70
2022-08-25T01:19:30.388Z,75.70
2022-08-25T01:22:08.631Z,75.59
2022-08-25T01:25:12.769Z,75.49
2022-08-25T01:27:41.783Z,75.51
2022-08-25T01:30:20.083Z,75.41
2022-08-25T01:32:59.739Z,75.41
2022-08-25T01:35:43.549Z,75.36
2022-08-25T01:38:26.931Z,76.14
2022-08-25T01:41:10.339Z,75.91
2022-08-25T01:43:42.176Z,74.83
2022-08-25T01:46:19.639Z,73.54
2022-08-25T01:48:53.599Z,72.58
2022-08-25T01:51:53.725Z,72.09
2022-08-25T01:54:25.539Z,71.26
2022-08-25T01:57:11.778Z,70.99
2022-08-25T01:59:50.025Z,70.51
2022-08-25T02:02:37.447Z,70.06
2022-08-25T02:05:14.317Z,69.48
2022-08-25T02:07:58.469Z,69.04
2022-08-25T02:10:34.634Z,68.78
2022-08-25T02:13:08.349Z,68.53
2022-08-25T02:15:54.437Z,68.41
2022-08-25T02:18:32.506Z,68.40
2022-08-25T02:21:11.751Z,68.22
2022-08-25T02:23:54.451Z,68.04
2022-08-25T02:26:26.414Z,68.01
2022-08-25T02:28:58.243Z,67.73
2022-08-25T02:31:35.870Z,67.56
2022-08-25T02:34:09.007Z,67.53
2022-08-25T02:36:49.317Z,67.54
2022-08-25T02:39:18.240Z,67.39
2022-08-25T02:41:56.275Z,67.46
2022-08-25T02:44:25.104Z,67.47
2022-08-25T02:46:56.418Z,67.38
2022-08-25T02:49:32.513Z,67.21
2022-08-25T02:52:07.423Z,67.13
2022-08-25T02:54:39.696Z,66.98
2022-08-25T02:57:16.077Z,66.83
2022-08-25T02:59:57.394Z,66.68
2022-08-25T03:02:27.478Z,66.62
2022-08-25T03:04:59.372Z,66.42
2022-08-25T03:07:55.058Z,66.48
2022-08-25T03:10:29.164Z,66.46
2022-08-25T03:13:13.422Z,66.34
2022-08-25T03:15:54.595Z,66.36
2022-08-25T03:18:34.857Z,66.31
2022-08-25T03:21:10.084Z,66.09
2022-08-25T03:23:42.705Z,65.89
2022-08-25T03:26:40.879Z,65.76
2022-08-25T03:29:19.037Z,65.73
2022-08-25T03:31:48.701Z,65.53
2022-08-25T03:34:37.277Z,65.41
2022-08-25T03:37:12.561Z,65.46
2022-08-25T03:39:49.568Z,65.42
2022-08-25T03:42:26.999Z,65.33
2022-08-25T03:44:59.461Z,65.29
2022-08-25T03:47:29.921Z,65.27
2022-08-25T03:50:01.180Z,65.14
2022-08-25T03:52:29.865Z,65.21
2022-08-25T03:55:06.128Z,65.31
2022-08-25T03:57:38.529Z,65.34
2022-08-25T04:00:29.408Z,65.36
2022-08-25T04:03:01.677Z,65.30
2022-08-25T04:05:41.424Z,65.30
2022-08-25T04:08:19.440Z,65.15
2022-08-25T04:11:08.026Z,65.18
2022-08-25T04:13:49.363Z,65.11
2022-08-25T04:16:33.254Z,65.06
2022-08-25T04:19:09.670Z,64.93
2022-08-25T04:21:50.673Z,64.89
2022-08-25T04:24:22.380Z,64.78
2022-08-25T04:26:55.102Z,64.71
2022-08-25T04:29:37.285Z,64.75
2022-08-25T04:32:23.081Z,64.71
2022-08-25T04:34:57.594Z,64.71
2022-08-25T04:37:49.321Z,64.53
2022-08-25T04:40:28.765Z,64.50
2022-08-25T04:43:16.489Z,64.36
2022-08-25T04:45:51.674Z,64.31
2022-08-25T04:48:27.859Z,64.23
2022-08-25T04:51:27.641Z,64.25
2022-08-25T04:54:16.425Z,64.30
2022-08-25T04:56:47.708Z,64.16
2022-08-25T04:59:36.028Z,64.02
2022-08-25T05:02:13.548Z,63.92
2022-08-25T05:04:53.914Z,63.97
2022-08-25T05:07:33.864Z,64.02
2022-08-25T05:10:05.718Z,63.94
2022-08-25T05:12:41.167Z,64.02
2022-08-25T05:15:36.600Z,63.92
2022-08-25T05:18:18.203Z,63.92
2022-08-25T05:20:53.797Z,63.96
2022-08-25T05:23:42.577Z,63.98
2022-08-25T05:26:28.213Z,64.03
2022-08-25T05:29:04.752Z,64.00
2022-08-25T05:31:41.746Z,63.86
2022-08-25T05:34:12.535Z,63.80
2022-08-25T05:36:44.833Z,63.80
2022-08-25T05:39:19.523Z,63.76
2022-08-25T05:41:51.086Z,63.59
2022-08-25T05:44:21.310Z,63.63
2022-08-25T05:46:52.768Z,63.67
2022-08-25T05:49:23.929Z,63.68
2022-08-25T05:51:52.515Z,63.71
2022-08-25T05:54:24.448Z,63.81
2022-08-25T05:56:58.997Z,63.78
2022-08-25T05:59:33.830Z,63.69
2022-08-25T06:02:21.275Z,63.86
2022-08-25T06:04:52.933Z,63.86
2022-08-25T06:07:24.671Z,63.66
2022-08-25T06:09:59.032Z,63.89
2022-08-25T06:12:57.271Z,63.68
2022-08-25T06:15:38.854Z,63.59
2022-08-25T06:18:17.239Z,63.64
2022-08-25T06:20:46.026Z,63.51
2022-08-25T06:23:19.526Z,63.39
2022-08-25T06:26:05.238Z,63.38
2022-08-25T06:28:37.376Z,63.42
2022-08-25T06:31:46.477Z,63.30
2022-08-25T06:34:33.015Z,63.38
2022-08-25T06:37:28.353Z,63.37
2022-08-25T06:39:59.670Z,63.24
2022-08-25T06:42:39.829Z,63.01
2022-08-25T06:45:19.680Z,62.72
2022-08-25T06:47:53.108Z,62.22
2022-08-25T06:50:50.329Z,62.15
2022-08-25T06:53:22.491Z,61.91
2022-08-25T06:56:10.389Z,61.68
2022-08-25T06:58:45.746Z,61.42
2022-08-25T07:01:47.203Z,61.36
2022-08-25T07:04:40.597Z,61.28
2022-08-25T07:07:12.965Z,60.95
2022-08-25T07:09:47.660Z,60.66
2022-08-25T07:12:30.228Z,60.33
2022-08-25T07:15:19.280Z,60.21
2022-08-25T07:18:15.712Z,59.94
2022-08-25T07:20:52.262Z,59.72
2022-08-25T07:23:48.841Z,58.66
2022-08-25T07:26:37.301Z,59.33
2022-08-25T07:29:32.725Z,60.62
2022-08-25T07:32:26.551Z,63.12
2022-08-25T07:35:24.191Z,63.42
2022-08-25T07:38:04.679Z,62.55
2022-08-25T07:41:05.189Z,61.88
2022-08-25T07:43:39.424Z,61.27
2022-08-25T07:46:19.636Z,61.11
2022-08-25T07:52:11.868Z,60.35
2022-08-25T07:54:54.203Z,59.42
2022-08-25T07:57:28.387Z,58.35
2022-08-25T08:00:03.291Z,58.97
2022-08-25T08:02:42.180Z,59.80
2022-08-25T08:05:15.432Z,61.90
2022-08-25T08:07:56.531Z,62.77
2022-08-25T08:10:53.936Z,61.94
2022-08-25T08:13:36.793Z,61.52
2022-08-25T08:16:41.303Z,61.23
2022-08-25T08:19:45.235Z,60.95
2022-08-25T08:22:18.124Z,60.76
2022-08-25T08:25:04.587Z,60.27
2022-08-25T08:27:47.236Z,59.93
2022-08-25T08:30:27.483Z,59.77
2022-08-25T08:33:10.070Z,59.67
2022-08-25T08:35:46.138Z,59.68
2022-08-25T08:38:22.092Z,59.59
2022-08-25T08:44:45.883Z,60.01
2022-08-25T08:47:55.175Z,60.20
2022-08-25T08:51:00.735Z,60.40
2022-08-25T08:54:24.241Z,60.47
2022-08-25T08:57:17.707Z,60.60
2022-08-25T08:59:50.695Z,60.96
2022-08-25T09:02:39.449Z,61.17
2022-08-25T09:05:51.988Z,61.48
2022-08-25T09:08:28.520Z,61.61
2022-08-25T09:11:16.509Z,62.01
2022-08-25T09:14:43.734Z,62.29
2022-08-25T09:17:35.663Z,62.54
2022-08-25T09:20:45.654Z,62.55
2022-08-25T09:23:47.504Z,62.65
2022-08-25T09:26:28.595Z,62.87
2022-08-25T09:29:07.068Z,62.90
2022-08-25T09:32:00.668Z,62.93
2022-08-25T09:34:54.244Z,62.97
2022-08-25T09:37:49.827Z,62.92
2022-08-25T09:40:24.914Z,62.89
2022-08-25T09:43:05.749Z,62.68
2022-08-25T09:46:07.391Z,62.71
2022-08-25T09:49:13.717Z,62.99
2022-08-25T09:52:01.081Z,63.07
2022-08-25T09:54:50.596Z,62.84
2022-08-25T09:57:37.840Z,62.75
2022-08-25T10:00:45.212Z,62.66
2022-08-25T10:03:25.195Z,62.53
2022-08-25T10:06:26.574Z,62.22
2022-08-25T10:09:07.536Z,62.19
2022-08-25T10:12:15.667Z,62.13
2022-08-25T10:15:29.768Z,61.96
2022-08-25T10:18:32.121Z,61.90
2022-08-25T10:21:25.943Z,61.82
2022-08-25T10:24:11.355Z,61.68
2022-08-25T10:26:59.889Z,61.59
2022-08-25T10:30:10.072Z,61.50
2022-08-25T10:33:04.733Z,61.37
2022-08-25T10:36:07.553Z,61.17
2022-08-25T10:39:34.204Z,60.94
2022-08-25T10:42:17.714Z,60.45
2022-08-25T10:45:31.652Z,60.24
2022-08-25T10:48:06.584Z,60.38
2022-08-25T10:51:20.566Z,60.05
2022-08-25T10:54:18.298Z,59.81
2022-08-25T10:57:01.933Z,59.54
2022-08-25T10:59:39.656Z,58.77
2022-08-25T11:02:38.527Z,58.88
2022-08-25T11:05:42.545Z,59.65
2022-08-25T11:08:25.774Z,61.76
2022-08-25T11:11:11.683Z,62.19
2022-08-25T11:13:48.740Z,60.97
2022-08-25T11:16:44.782Z,60.36
2022-08-25T11:19:30.884Z,59.44
2022-08-25T11:22:20.028Z,58.09
2022-08-25T11:25:18.741Z,58.63
2022-08-25T11:28:36.347Z,59.41
2022-08-25T11:31:17.565Z,59.97
2022-08-25T11:33:55.500Z,61.15
2022-08-25T11:36:42.303Z,62.37
2022-08-25T11:39:52.500Z,62.15
2022-08-25T11:43:20.680Z,61.06
2022-08-25T11:46:10.472Z,59.98
2022-08-25T11:49:04.619Z,58.09
2022-08-25T11:52:03.498Z,58.09
2022-08-25T11:54:55.428Z,58.72
2022-08-25T11:57:46.797Z,60.17
2022-08-25T12:00:37.495Z,60.81
2022-08-25T12:03:43.477Z,62.60
2022-08-25T12:06:31.900Z,62.96
2022-08-25T12:09:00.827Z,61.54
2022-08-25T12:11:38.790Z,58.55
2022-08-25T12:14:16.985Z,56.82
2022-08-25T12:17:18.459Z,57.59
2022-08-25T12:19:51.029Z,56.56
2022-08-25T12:22:27.074Z,57.51
2022-08-25T12:25:04.112Z,57.51
2022-08-25T12:27:38.996Z,58.28
2022-08-25T12:30:20.680Z,58.10
2022-08-25T12:33:12.418Z,59.06
2022-08-25T12:36:07.320Z,58.62
2022-08-25T12:38:53.095Z,59.47
2022-08-25T12:41:31.002Z,60.44
2022-08-25T12:44:47.226Z,61.19
2022-08-25T12:47:27.394Z,63.28
2022-08-25T12:50:33.633Z,62.95
2022-08-25T12:53:49.314Z,62.22
2022-08-25T12:56:50.052Z,61.13
2022-08-25T12:59:45.805Z,60.69
2022-08-25T13:02:26.422Z,59.29
2022-08-25T13:05:12.130Z,59.60
2022-08-25T13:08:15.568Z,60.53
2022-08-25T13:11:14.231Z,62.87
2022-08-25T13:14:18.083Z,63.26
2022-08-25T13:17:01.120Z,62.16
2022-08-25T13:19:34.764Z,61.39
2022-08-25T13:22:18.487Z,61.02
2022-08-25T13:27:41.968Z,60.18
2022-08-25T13:30:28.236Z,58.91
2022-08-25T13:33:20.544Z,58.82
2022-08-25T13:36:18.300Z,59.75
2022-08-25T13:39:04.060Z,60.45
2022-08-25T13:41:38.172Z,62.33
2022-08-25T13:44:06.757Z,62.61
2022-08-25T13:46:42.944Z,61.60
2022-08-25T13:49:26.559Z,60.66
2022-08-25T13:51:59.438Z,58.97
2022-08-25T13:55:12.463Z,58.59
2022-08-25T13:57:56.785Z,59.08
2022-08-25T14:00:53.668Z,59.86
2022-08-25T14:03:37.515Z,60.72
2022-08-25T14:06:39.477Z,62.59
2022-08-25T14:09:26.639Z,62.14
2022-08-25T14:15:26.286Z,58.21
2022-08-25T14:18:07.462Z,57.76
2022-08-25T14:20:37.723Z,58.67
2022-08-25T14:23:19.073Z,59.47
2022-08-25T14:26:10.580Z,60.39
2022-08-25T14:28:51.089Z,59.91
2022-08-25T14:31:29.123Z,60.70
2022-08-25T14:34:08.192Z,62.38
2022-08-25T14:36:51.747Z,62.44
2022-08-25T14:39:21.979Z,60.40
2022-08-25T14:42:17.136Z,57.82
2022-08-25T14:44:52.497Z,57.32
2022-08-25T14:47:24.621Z,58.04
2022-08-25T14:49:58.912Z,58.79
2022-08-25T14:52:32.614Z,59.55
2022-08-25T14:55:04.297Z,60.43
2022-08-25T14:57:52.720Z,61.10
2022-08-25T15:00:43.282Z,62.82
2022-08-25T15:03:26.238Z,63.21
2022-08-25T15:06:00.608Z,62.13
2022-08-25T15:08:48.801Z,61.01
2022-08-25T15:11:54.767Z,60.68
2022-08-25T15:14:36.379Z,59.25
2022-08-25T15:17:09.950Z,59.16
2022-08-25T15:20:17.210Z,60.04
2022-08-25T15:22:51.219Z,61.20
2022-08-25T15:25:25.671Z,63.51
2022-08-25T15:28:22.159Z,64.23
2022-08-25T15:31:03.484Z,63.64
2022-08-25T15:33:41.992Z,62.72
2022-08-25T15:36:23.311Z,62.11
2022-08-25T15:39:16.068Z,61.97
2022-08-25T15:42:02.775Z,61.74
2022-08-25T15:44:53.527Z,61.43
2022-08-25T15:47:45.584Z,61.29
2022-08-25T15:50:34.706Z,61.03
2022-08-25T15:53:12.590Z,60.99
2022-08-25T15:55:43.722Z,60.79
2022-08-25T15:58:24.157Z,60.55
2022-08-25T16:01:00.120Z,60.27
2022-08-25T16:03:29.105Z,60.39
2022-08-25T16:06:04.165Z,60.36
2022-08-25T16:08:37.432Z,60.41
2022-08-25T16:11:39.398Z,60.46
2022-08-25T16:14:15.254Z,60.34
2022-08-25T16:16:47.193Z,60.23
2022-08-25T16:19:15.977Z,59.94
2022-08-25T16:21:47.137Z,60.00
2022-08-25T16:24:16.755Z,59.99
2022-08-25T16:26:50.254Z,60.05
2022-08-25T16:29:26.404Z,60.27
2022-08-25T16:32:07.745Z,60.46
2022-08-25T16:34:40.267Z,60.63
2022-08-25T16:37:12.748Z,60.75
2022-08-25T16:39:45.811Z,60.81
2022-08-25T16:42:15.379Z,60.91
2022-08-25T16:44:47.783Z,61.05
2022-08-25T16:47:29.661Z,60.92
2022-08-25T16:50:13.342Z,61.02
2022-08-25T16:53:32.138Z,61.35
2022-08-25T16:56:08.540Z,61.48
2022-08-25T16:59:04.293Z,61.35
2022-08-25T17:01:40.074Z,61.41
2022-08-25T17:04:32.203Z,61.44
2022-08-25T17:07:09.477Z,61.45
2022-08-25T17:09:42.845Z,61.59
2022-08-25T17:12:22.417Z,61.67
2022-08-25T17:14:55.400Z,61.58
2022-08-25T17:17:27.443Z,61.56
2022-08-25T17:20:05.667Z,61.58
2022-08-25T17:22:40.243Z,61.67
2022-08-25T17:25:14.815Z,61.87
2022-08-25T17:27:54.419Z,62.17
2022-08-25T17:30:29.298Z,62.18
2022-08-25T17:33:24.033Z,62.29
2022-08-25T17:36:19.423Z,62.67
2022-08-25T17:38:54.331Z,62.71
2022-08-25T17:41:39.823Z,62.78
2022-08-25T17:44:31.193Z,62.93
2022-08-25T17:47:16.368Z,63.01
2022-08-25T17:49:59.725Z,63.16
2022-08-25T17:52:39.709Z,63.22
2022-08-25T17:55:12.076Z,63.30
2022-08-25T17:58:28.495Z,63.44
2022-08-25T18:00:58.881Z,63.58
2022-08-25T18:03:28.383Z,63.47
2022-08-25T18:05:57.171Z,63.42
2022-08-25T18:08:29.896Z,63.48
2022-08-25T18:11:04.912Z,63.66
2022-08-25T18:13:57.968Z,63.62
2022-08-25T18:16:33.146Z,63.89
2022-08-25T18:19:26.073Z,64.07
2022-08-25T18:22:23.906Z,63.98
2022-08-25T18:25:06.939Z,64.11
2022-08-25T18:27:47.196Z,64.06
2022-08-25T18:30:36.147Z,63.74
2022-08-25T18:33:10.669Z,63.88
2022-08-25T18:36:03.435Z,64.03
2022-08-25T18:38:58.208Z,64.01
2022-08-25T18:41:36.734Z,63.99
2022-08-25T18:44:06.719Z,64.10
2022-08-25T18:46:42.324Z,64.08
2022-08-25T18:49:26.920Z,64.31
2022-08-25T18:51:58.305Z,64.36
2022-08-25T18:54:47.557Z,64.48
2022-08-25T18:57:22.914Z,64.52
2022-08-25T18:59:55.054Z,64.51
2022-08-25T19:02:33.097Z,64.40
2022-08-25T19:05:10.730Z,64.42
2022-08-25T19:07:42.400Z,64.48
2022-08-25T19:10:14.949Z,64.46
2022-08-25T19:13:08.568Z,64.53
2022-08-25T19:15:59.936Z,64.52
2022-08-25T19:18:39.045Z,64.64
2022-08-25T19:21:13.497Z,64.69
2022-08-25T19:24:01.185Z,64.75
2022-08-25T19:27:07.153Z,64.83
2022-08-25T19:29:49.476Z,64.95
2022-08-25T19:32:36.081Z,64.84
2022-08-25T19:35:25.326Z,64.90
2022-08-25T19:38:00.892Z,64.94
2022-08-25T19:40:47.478Z,64.91
2022-08-25T19:43:20.053Z,64.92
2022-08-25T19:45:51.980Z,64.92
2022-08-25T19:48:38.211Z,64.93
2022-08-25T19:51:27.378Z,64.96
2022-08-25T19:54:35.183Z,65.14
2022-08-25T19:57:28.495Z,65.32
2022-08-25T20:00:32.893Z,65.07
2022-08-25T20:03:21.545Z,65.11
2022-08-25T20:06:36.250Z,65.11
2022-08-25T20:09:35.763Z,65.12
2022-08-25T20:12:06.168Z,65.11
2022-08-25T20:14:56.736Z,65.09
2022-08-25T20:17:39.228Z,65.18
2022-08-25T20:20:23.486Z,65.26
2022-08-25T20:23:16.055Z,65.24
2022-08-25T20:25:51.969Z,65.25
2022-08-25T20:28:20.751Z,65.26
2022-08-25T20:31:20.980Z,65.35
2022-08-25T20:34:00.988Z,65.57
2022-08-25T20:36:50.164Z,65.62
2022-08-25T20:39:33.950Z,65.75
2022-08-25T20:42:17.632Z,65.78
2022-08-25T20:45:15.355Z,65.80
2022-08-25T20:48:01.981Z,66.01
2022-08-25T20:50:42.627Z,66.06
2022-08-25T20:53:47.798Z,66.00
2022-08-25T20:56:36.836Z,65.95
2022-08-25T20:59:17.730Z,66.07
2022-08-25T21:01:55.708Z,66.09
2022-08-25T21:05:09.372Z,66.26
2022-08-25T21:07:44.227Z,66.48
2022-08-25T21:10:21.258Z,66.51
2022-08-25T21:13:19.148Z,66.56
2022-08-25T21:16:15.847Z,66.56
2022-08-25T21:18:51.872Z,66.49
2022-08-25T21:21:32.911Z,66.38
2022-08-25T21:24:09.873Z,66.46
2022-08-25T21:27:03.536Z,66.44
2022-08-25T21:29:44.340Z,66.53
2022-08-25T21:32:23.865Z,66.50
2022-08-25T21:35:40.233Z,66.63
2022-08-25T21:38:32.202Z,66.83
2022-08-25T21:41:19.107Z,66.74
2022-08-25T21:44:01.518Z,66.83
2022-08-25T21:46:41.554Z,66.89
2022-08-25T21:49:26.911Z,66.94
2022-08-25T21:52:09.227Z,66.81
2022-08-25T21:55:01.567Z,66.80
2022-08-25T21:57:44.168Z,66.91
2022-08-25T22:00:24.124Z,66.93
2022-08-25T22:03:38.194Z,66.89
2022-08-25T22:06:42.043Z,66.88
2022-08-25T22:10:01.187Z,66.92
2022-08-25T22:12:36.536Z,66.90
2022-08-25T22:15:36.650Z,66.87
2022-08-25T22:18:13.393Z,66.92
2022-08-25T22:21:01.085Z,66.81
2022-08-25T22:23:44.544Z,66.82
2022-08-25T22:26:39.696Z,66.86
2022-08-25T22:29:23.241Z,66.86
2022-08-25T22:32:19.256Z,66.86
2022-08-25T22:35:11.462Z,66.98
2022-08-25T22:38:27.489Z,67.06
2022-08-25T22:41:21.573Z,67.15
2022-08-25T22:43:58.426Z,67.07
2022-08-25T22:46:39.441Z,67.09
2022-08-25T22:49:22.344Z,67.05
2022-08-25T22:52:06.162Z,67.00
2022-08-25T22:54:51.868Z,67.11
2022-08-25T22:57:45.198Z,67.17
2022-08-25T23:00:38.186Z,67.40
2022-08-25T23:03:38.177Z,67.60
2022-08-25T23:06:29.305Z,67.32
2022-08-25T23:08:58.745Z,67.32
2022-08-25T23:11:30.103Z,67.44
2022-08-25T23:14:05.861Z,67.43
2022-08-25T23:16:43.460Z,67.34
2022-08-25T23:19:28.795Z,67.25
2022-08-25T23:22:11.153Z,67.25
2022-08-25T23:24:57.703Z,67.19
2022-08-25T23:27:29.665Z,67.15
2022-08-25T23:30:27.586Z,67.22
2022-08-25T23:33:04.726Z,67.28
2022-08-25T23:36:24.941Z,67.21
2022-08-25T23:39:04.634Z,67.25
2022-08-25T23:41:43.647Z,67.17
2022-08-25T23:44:43.906Z,67.18
2022-08-25T23:47:49.665Z,67.12
2022-08-25T23:50:24.687Z,67.09
2022-08-25T23:53:04.345Z,67.06
2022-08-25T23:55:56.703Z,67.27
2022-08-25T23:58:54.659Z,67.31
